sensor_id;sensor_type;location;lat;lon;timestamp;temperature;humidity
42755;DHT22;28407;51.830;5.684;2023-06-22T00:00:12;23.90;58.40
42755;DHT22;28407;51.830;5.684;2023-06-22T00:02:13;23.90;58.40
42755;DHT22;28407;51.830;5.684;2023-06-22T00:04:13;23.90;58.50
42755;DHT22;28407;51.830;5.684;2023-06-22T00:06:14;24.00;58.60
42755;DHT22;28407;51.830;5.684;2023-06-22T00:08:17;23.90;58.60
42755;DHT22;28407;51.830;5.684;2023-06-22T00:10:18;23.90;58.70
42755;DHT22;28407;51.830;5.684;2023-06-22T00:12:18;23.90;58.70
42755;DHT22;28407;51.830;5.684;2023-06-22T00:14:19;23.90;58.80
42755;DHT22;28407;51.830;5.684;2023-06-22T00:16:19;23.90;58.90
42755;DHT22;28407;51.830;5.684;2023-06-22T00:18:20;23.90;59.10
42755;DHT22;28407;51.830;5.684;2023-06-22T00:20:21;23.90;59.10
42755;DHT22;28407;51.830;5.684;2023-06-22T00:22:22;23.80;59.20
42755;DHT22;28407;51.830;5.684;2023-06-22T00:24:28;23.80;59.40
42755;DHT22;28407;51.830;5.684;2023-06-22T00:26:29;23.80;59.40
42755;DHT22;28407;51.830;5.684;2023-06-22T00:28:30;23.80;59.50
42755;DHT22;28407;51.830;5.684;2023-06-22T00:30:31;23.80;59.50
42755;DHT22;28407;51.830;5.684;2023-06-22T00:32:32;23.80;59.60
42755;DHT22;28407;51.830;5.684;2023-06-22T00:34:33;23.70;59.60
42755;DHT22;28407;51.830;5.684;2023-06-22T00:36:34;23.80;59.70
42755;DHT22;28407;51.830;5.684;2023-06-22T00:38:35;23.70;59.70
42755;DHT22;28407;51.830;5.684;2023-06-22T00:40:42;23.70;59.80
42755;DHT22;28407;51.830;5.684;2023-06-22T00:42:43;23.70;59.80
42755;DHT22;28407;51.830;5.684;2023-06-22T00:44:44;23.60;59.90
42755;DHT22;28407;51.830;5.684;2023-06-22T00:46:45;23.60;60.10
42755;DHT22;28407;51.830;5.684;2023-06-22T00:48:46;23.60;60.10
42755;DHT22;28407;51.830;5.684;2023-06-22T00:50:46;23.60;60.10
42755;DHT22;28407;51.830;5.684;2023-06-22T00:52:53;23.60;60.20
42755;DHT22;28407;51.830;5.684;2023-06-22T00:54:54;23.50;60.20
42755;DHT22;28407;51.830;5.684;2023-06-22T00:56:55;23.50;60.30
42755;DHT22;28407;51.830;5.684;2023-06-22T00:58:58;23.50;60.30
42755;DHT22;28407;51.830;5.684;2023-06-22T01:00:59;23.50;60.50
42755;DHT22;28407;51.830;5.684;2023-06-22T01:03:02;23.40;60.50
42755;DHT22;28407;51.830;5.684;2023-06-22T01:05:03;23.40;60.50
42755;DHT22;28407;51.830;5.684;2023-06-22T01:07:16;23.40;60.60
42755;DHT22;28407;51.830;5.684;2023-06-22T01:09:24;23.40;60.70
42755;DHT22;28407;51.830;5.684;2023-06-22T01:11:50;23.30;60.70
42755;DHT22;28407;51.830;5.684;2023-06-22T01:14:24;23.30;60.70
42755;DHT22;28407;51.830;5.684;2023-06-22T01:16:33;23.30;60.90
42755;DHT22;28407;51.830;5.684;2023-06-22T01:18:36;23.20;60.80
42755;DHT22;28407;51.830;5.684;2023-06-22T01:20:38;23.20;60.90
42755;DHT22;28407;51.830;5.684;2023-06-22T01:25:13;23.20;61.00
42755;DHT22;28407;51.830;5.684;2023-06-22T01:27:39;23.20;61.10
42755;DHT22;28407;51.830;5.684;2023-06-22T01:29:46;23.20;61.20
42755;DHT22;28407;51.830;5.684;2023-06-22T01:31:47;23.10;61.20
42755;DHT22;28407;51.830;5.684;2023-06-22T01:34:01;23.10;61.50
42755;DHT22;28407;51.830;5.684;2023-06-22T01:36:03;23.10;61.70
42755;DHT22;28407;51.830;5.684;2023-06-22T01:38:05;23.10;61.80
42755;DHT22;28407;51.830;5.684;2023-06-22T01:40:07;23.10;61.90
42755;DHT22;28407;51.830;5.684;2023-06-22T01:42:08;23.00;61.90
42755;DHT22;28407;51.830;5.684;2023-06-22T01:44:10;23.00;61.80
42755;DHT22;28407;51.830;5.684;2023-06-22T01:46:12;23.00;61.90
42755;DHT22;28407;51.830;5.684;2023-06-22T01:48:13;23.00;62.00
42755;DHT22;28407;51.830;5.684;2023-06-22T01:50:14;23.00;61.90
42755;DHT22;28407;51.830;5.684;2023-06-22T01:52:15;23.00;61.90
42755;DHT22;28407;51.830;5.684;2023-06-22T01:54:16;23.00;61.90
42755;DHT22;28407;51.830;5.684;2023-06-22T01:56:17;23.00;62.00
42755;DHT22;28407;51.830;5.684;2023-06-22T01:58:20;23.00;62.00
42755;DHT22;28407;51.830;5.684;2023-06-22T02:00:22;22.90;62.10
42755;DHT22;28407;51.830;5.684;2023-06-22T02:02:24;22.90;62.10
42755;DHT22;28407;51.830;5.684;2023-06-22T02:04:54;22.90;62.20
42755;DHT22;28407;51.830;5.684;2023-06-22T02:06:58;22.90;62.20
42755;DHT22;28407;51.830;5.684;2023-06-22T02:09:02;22.90;62.20
42755;DHT22;28407;51.830;5.684;2023-06-22T02:11:03;22.90;62.20
42755;DHT22;28407;51.830;5.684;2023-06-22T02:13:07;22.90;62.30
42755;DHT22;28407;51.830;5.684;2023-06-22T02:15:09;22.80;62.20
42755;DHT22;28407;51.830;5.684;2023-06-22T02:17:10;22.80;62.30
42755;DHT22;28407;51.830;5.684;2023-06-22T02:19:11;22.80;62.30
42755;DHT22;28407;51.830;5.684;2023-06-22T02:21:12;22.80;62.40
42755;DHT22;28407;51.830;5.684;2023-06-22T02:23:12;22.70;62.30
42755;DHT22;28407;51.830;5.684;2023-06-22T02:25:13;22.70;62.40
42755;DHT22;28407;51.830;5.684;2023-06-22T02:27:14;22.70;62.40
42755;DHT22;28407;51.830;5.684;2023-06-22T02:29:15;22.70;62.40
42755;DHT22;28407;51.830;5.684;2023-06-22T02:31:17;22.70;62.50
42755;DHT22;28407;51.830;5.684;2023-06-22T02:33:18;22.60;62.40
42755;DHT22;28407;51.830;5.684;2023-06-22T02:35:20;22.60;62.40
42755;DHT22;28407;51.830;5.684;2023-06-22T02:37:22;22.60;62.50
42755;DHT22;28407;51.830;5.684;2023-06-22T02:39:25;22.60;62.50
42755;DHT22;28407;51.830;5.684;2023-06-22T02:41:26;22.60;62.50
42755;DHT22;28407;51.830;5.684;2023-06-22T02:43:27;22.60;62.50
42755;DHT22;28407;51.830;5.684;2023-06-22T02:45:27;22.60;62.50
42755;DHT22;28407;51.830;5.684;2023-06-22T02:47:28;22.60;62.50
42755;DHT22;28407;51.830;5.684;2023-06-22T02:49:29;22.60;62.50
42755;DHT22;28407;51.830;5.684;2023-06-22T02:51:32;22.60;62.50
42755;DHT22;28407;51.830;5.684;2023-06-22T02:53:34;22.60;62.50
42755;DHT22;28407;51.830;5.684;2023-06-22T02:55:35;22.50;62.50
42755;DHT22;28407;51.830;5.684;2023-06-22T02:57:35;22.60;62.60
42755;DHT22;28407;51.830;5.684;2023-06-22T02:59:36;22.50;62.50
42755;DHT22;28407;51.830;5.684;2023-06-22T03:01:43;22.50;62.60
42755;DHT22;28407;51.830;5.684;2023-06-22T03:03:53;22.50;62.60
42755;DHT22;28407;51.830;5.684;2023-06-22T03:05:54;22.50;62.70
42755;DHT22;28407;51.830;5.684;2023-06-22T03:07:56;22.50;62.70
42755;DHT22;28407;51.830;5.684;2023-06-22T03:09:57;22.40;62.70
42755;DHT22;28407;51.830;5.684;2023-06-22T03:11:57;22.50;62.80
42755;DHT22;28407;51.830;5.684;2023-06-22T03:14:02;22.40;62.90
42755;DHT22;28407;51.830;5.684;2023-06-22T03:16:03;22.40;62.90
42755;DHT22;28407;51.830;5.684;2023-06-22T03:18:04;22.30;63.00
42755;DHT22;28407;51.830;5.684;2023-06-22T03:20:06;22.30;63.10
42755;DHT22;28407;51.830;5.684;2023-06-22T03:22:09;22.30;63.10
42755;DHT22;28407;51.830;5.684;2023-06-22T03:24:10;22.30;63.20
42755;DHT22;28407;51.830;5.684;2023-06-22T03:26:10;22.30;63.20
42755;DHT22;28407;51.830;5.684;2023-06-22T03:28:11;22.30;63.20
42755;DHT22;28407;51.830;5.684;2023-06-22T03:30:12;22.30;63.20
42755;DHT22;28407;51.830;5.684;2023-06-22T03:32:13;22.30;63.20
42755;DHT22;28407;51.830;5.684;2023-06-22T03:34:13;22.30;63.30
42755;DHT22;28407;51.830;5.684;2023-06-22T03:36:14;22.20;63.30
42755;DHT22;28407;51.830;5.684;2023-06-22T03:38:19;22.20;63.40
42755;DHT22;28407;51.830;5.684;2023-06-22T03:40:20;22.10;63.50
42755;DHT22;28407;51.830;5.684;2023-06-22T03:42:21;22.10;63.60
42755;DHT22;28407;51.830;5.684;2023-06-22T03:44:21;22.10;63.60
42755;DHT22;28407;51.830;5.684;2023-06-22T03:46:22;22.10;63.70
42755;DHT22;28407;51.830;5.684;2023-06-22T03:48:22;22.00;63.70
42755;DHT22;28407;51.830;5.684;2023-06-22T03:50:23;22.10;63.70
42755;DHT22;28407;51.830;5.684;2023-06-22T03:52:23;22.10;63.80
42755;DHT22;28407;51.830;5.684;2023-06-22T03:54:25;22.10;63.80
42755;DHT22;28407;51.830;5.684;2023-06-22T03:56:26;22.00;63.80
42755;DHT22;28407;51.830;5.684;2023-06-22T03:58:26;22.00;63.70
42755;DHT22;28407;51.830;5.684;2023-06-22T04:00:28;22.00;63.90
42755;DHT22;28407;51.830;5.684;2023-06-22T04:02:28;22.00;63.90
42755;DHT22;28407;51.830;5.684;2023-06-22T04:04:29;22.00;64.00
42755;DHT22;28407;51.830;5.684;2023-06-22T04:06:30;22.00;63.90
42755;DHT22;28407;51.830;5.684;2023-06-22T04:08:30;22.00;63.90
42755;DHT22;28407;51.830;5.684;2023-06-22T04:10:31;22.00;64.00
42755;DHT22;28407;51.830;5.684;2023-06-22T04:12:32;22.00;64.00
42755;DHT22;28407;51.830;5.684;2023-06-22T04:14:33;22.00;64.00
42755;DHT22;28407;51.830;5.684;2023-06-22T04:16:33;22.00;64.00
42755;DHT22;28407;51.830;5.684;2023-06-22T04:18:34;22.00;64.00
42755;DHT22;28407;51.830;5.684;2023-06-22T04:20:34;22.00;64.00
42755;DHT22;28407;51.830;5.684;2023-06-22T04:22:35;22.00;64.00
42755;DHT22;28407;51.830;5.684;2023-06-22T04:24:35;22.00;64.00
42755;DHT22;28407;51.830;5.684;2023-06-22T04:26:36;22.00;64.10
42755;DHT22;28407;51.830;5.684;2023-06-22T04:28:37;22.00;64.10
42755;DHT22;28407;51.830;5.684;2023-06-22T04:30:38;22.00;64.10
42755;DHT22;28407;51.830;5.684;2023-06-22T04:32:46;22.00;64.10
42755;DHT22;28407;51.830;5.684;2023-06-22T04:34:56;22.00;64.00
42755;DHT22;28407;51.830;5.684;2023-06-22T04:36:57;22.10;64.10
42755;DHT22;28407;51.830;5.684;2023-06-22T04:38:58;22.10;64.00
42755;DHT22;28407;51.830;5.684;2023-06-22T04:40:58;22.10;64.00
42755;DHT22;28407;51.830;5.684;2023-06-22T04:43:01;22.20;64.10
42755;DHT22;28407;51.830;5.684;2023-06-22T04:45:03;22.20;64.10
42755;DHT22;28407;51.830;5.684;2023-06-22T04:47:05;22.20;64.10
42755;DHT22;28407;51.830;5.684;2023-06-22T04:49:09;22.20;64.20
42755;DHT22;28407;51.830;5.684;2023-06-22T04:51:12;22.20;64.10
42755;DHT22;28407;51.830;5.684;2023-06-22T04:53:13;22.20;64.10
42755;DHT22;28407;51.830;5.684;2023-06-22T04:55:14;22.30;64.10
42755;DHT22;28407;51.830;5.684;2023-06-22T04:57:18;22.30;64.10
42755;DHT22;28407;51.830;5.684;2023-06-22T04:59:19;22.30;64.10
42755;DHT22;28407;51.830;5.684;2023-06-22T05:01:19;22.30;64.00
42755;DHT22;28407;51.830;5.684;2023-06-22T05:03:24;22.30;64.00
42755;DHT22;28407;51.830;5.684;2023-06-22T05:05:26;22.40;64.10
42755;DHT22;28407;51.830;5.684;2023-06-22T05:07:26;22.40;64.10
42755;DHT22;28407;51.830;5.684;2023-06-22T05:09:28;22.40;64.10
42755;DHT22;28407;51.830;5.684;2023-06-22T05:11:29;22.50;64.20
42755;DHT22;28407;51.830;5.684;2023-06-22T05:13:29;22.50;64.20
42755;DHT22;28407;51.830;5.684;2023-06-22T05:15:30;22.50;64.10
42755;DHT22;28407;51.830;5.684;2023-06-22T05:17:37;22.60;64.20
42755;DHT22;28407;51.830;5.684;2023-06-22T05:19:43;22.60;64.20
42755;DHT22;28407;51.830;5.684;2023-06-22T05:21:48;22.60;64.20
42755;DHT22;28407;51.830;5.684;2023-06-22T05:23:49;22.60;64.30
42755;DHT22;28407;51.830;5.684;2023-06-22T05:25:51;22.70;64.30
42755;DHT22;28407;51.830;5.684;2023-06-22T05:27:51;22.70;64.30
42755;DHT22;28407;51.830;5.684;2023-06-22T05:29:52;22.70;64.20
42755;DHT22;28407;51.830;5.684;2023-06-22T05:31:53;22.70;64.30
42755;DHT22;28407;51.830;5.684;2023-06-22T05:33:54;22.70;64.30
42755;DHT22;28407;51.830;5.684;2023-06-22T05:35:55;22.80;64.40
42755;DHT22;28407;51.830;5.684;2023-06-22T05:37:56;22.80;64.40
42755;DHT22;28407;51.830;5.684;2023-06-22T05:39:56;22.80;64.50
42755;DHT22;28407;51.830;5.684;2023-06-22T05:41:57;22.80;64.50
42755;DHT22;28407;51.830;5.684;2023-06-22T05:43:58;22.90;64.60
42755;DHT22;28407;51.830;5.684;2023-06-22T05:46:00;22.90;64.60
42755;DHT22;28407;51.830;5.684;2023-06-22T05:48:01;22.90;64.60
42755;DHT22;28407;51.830;5.684;2023-06-22T05:50:02;22.90;65.30
42755;DHT22;28407;51.830;5.684;2023-06-22T05:52:07;23.00;64.70
42755;DHT22;28407;51.830;5.684;2023-06-22T05:54:07;23.00;64.80
42755;DHT22;28407;51.830;5.684;2023-06-22T05:56:09;23.00;64.90
42755;DHT22;28407;51.830;5.684;2023-06-22T05:58:09;23.00;64.80
42755;DHT22;28407;51.830;5.684;2023-06-22T06:00:11;23.00;64.80
42755;DHT22;28407;51.830;5.684;2023-06-22T06:02:12;23.00;64.80
42755;DHT22;28407;51.830;5.684;2023-06-22T06:04:12;23.10;64.90
42755;DHT22;28407;51.830;5.684;2023-06-22T06:06:13;23.10;65.00
42755;DHT22;28407;51.830;5.684;2023-06-22T06:08:14;23.10;65.20
42755;DHT22;28407;51.830;5.684;2023-06-22T06:10:14;23.10;65.20
42755;DHT22;28407;51.830;5.684;2023-06-22T06:12:15;23.10;65.20
42755;DHT22;28407;51.830;5.684;2023-06-22T06:14:16;23.10;65.20
42755;DHT22;28407;51.830;5.684;2023-06-22T06:16:17;23.20;65.30
42755;DHT22;28407;51.830;5.684;2023-06-22T06:18:18;23.20;65.20
42755;DHT22;28407;51.830;5.684;2023-06-22T06:20:21;23.30;65.80
42755;DHT22;28407;51.830;5.684;2023-06-22T06:22:22;23.30;65.10
42755;DHT22;28407;51.830;5.684;2023-06-22T06:24:23;23.30;65.20
42755;DHT22;28407;51.830;5.684;2023-06-22T06:26:24;23.30;65.80
42755;DHT22;28407;51.830;5.684;2023-06-22T06:28:30;23.30;65.10
42755;DHT22;28407;51.830;5.684;2023-06-22T06:30:30;23.40;65.10
42755;DHT22;28407;51.830;5.684;2023-06-22T06:32:31;23.40;65.10
42755;DHT22;28407;51.830;5.684;2023-06-22T06:34:31;23.40;65.00
42755;DHT22;28407;51.830;5.684;2023-06-22T06:36:32;23.40;65.00
42755;DHT22;28407;51.830;5.684;2023-06-22T06:38:33;23.50;65.00
42755;DHT22;28407;51.830;5.684;2023-06-22T06:40:33;23.50;65.00
42755;DHT22;28407;51.830;5.684;2023-06-22T06:42:34;23.50;64.90
42755;DHT22;28407;51.830;5.684;2023-06-22T06:44:35;23.60;64.80
42755;DHT22;28407;51.830;5.684;2023-06-22T06:46:37;23.60;64.70
42755;DHT22;28407;51.830;5.684;2023-06-22T06:48:38;23.70;64.60
42755;DHT22;28407;51.830;5.684;2023-06-22T06:50:40;23.70;64.50
42755;DHT22;28407;51.830;5.684;2023-06-22T06:52:41;23.80;64.50
42755;DHT22;28407;51.830;5.684;2023-06-22T06:54:42;23.90;64.50
42755;DHT22;28407;51.830;5.684;2023-06-22T06:56:42;23.90;64.40
42755;DHT22;28407;51.830;5.684;2023-06-22T06:58:50;23.90;64.30
42755;DHT22;28407;51.830;5.684;2023-06-22T07:00:51;24.00;64.30
42755;DHT22;28407;51.830;5.684;2023-06-22T07:02:52;24.00;64.20
42755;DHT22;28407;51.830;5.684;2023-06-22T07:04:53;24.10;64.20
42755;DHT22;28407;51.830;5.684;2023-06-22T07:06:55;24.10;64.10
42755;DHT22;28407;51.830;5.684;2023-06-22T07:08:56;24.10;64.10
42755;DHT22;28407;51.830;5.684;2023-06-22T07:10:57;24.10;64.00
42755;DHT22;28407;51.830;5.684;2023-06-22T07:12:57;24.10;64.00
42755;DHT22;28407;51.830;5.684;2023-06-22T07:15:05;24.20;64.00
42755;DHT22;28407;51.830;5.684;2023-06-22T07:17:08;24.20;64.00
42755;DHT22;28407;51.830;5.684;2023-06-22T07:19:11;24.20;63.90
42755;DHT22;28407;51.830;5.684;2023-06-22T07:21:12;24.20;63.80
42755;DHT22;28407;51.830;5.684;2023-06-22T07:23:12;24.20;63.70
42755;DHT22;28407;51.830;5.684;2023-06-22T07:25:13;24.30;63.70
42755;DHT22;28407;51.830;5.684;2023-06-22T07:27:17;24.30;63.70
42755;DHT22;28407;51.830;5.684;2023-06-22T07:29:20;24.30;63.70
42755;DHT22;28407;51.830;5.684;2023-06-22T07:31:21;24.30;63.70
42755;DHT22;28407;51.830;5.684;2023-06-22T07:33:22;24.20;63.60
42755;DHT22;28407;51.830;5.684;2023-06-22T07:35:22;24.30;63.70
42755;DHT22;28407;51.830;5.684;2023-06-22T07:37:23;24.30;63.70
42755;DHT22;28407;51.830;5.684;2023-06-22T07:39:23;24.30;63.50
42755;DHT22;28407;51.830;5.684;2023-06-22T07:41:26;24.40;63.60
42755;DHT22;28407;51.830;5.684;2023-06-22T07:43:27;24.40;63.50
42755;DHT22;28407;51.830;5.684;2023-06-22T07:45:29;24.40;63.40
42755;DHT22;28407;51.830;5.684;2023-06-22T07:47:30;24.40;63.40
42755;DHT22;28407;51.830;5.684;2023-06-22T07:49:31;24.40;63.20
42755;DHT22;28407;51.830;5.684;2023-06-22T07:51:31;24.50;63.20
42755;DHT22;28407;51.830;5.684;2023-06-22T07:53:32;24.50;63.10
42755;DHT22;28407;51.830;5.684;2023-06-22T07:55:33;24.50;63.00
42755;DHT22;28407;51.830;5.684;2023-06-22T07:57:33;24.60;63.00
42755;DHT22;28407;51.830;5.684;2023-06-22T07:59:34;24.60;63.00
42755;DHT22;28407;51.830;5.684;2023-06-22T08:01:35;24.60;62.90
42755;DHT22;28407;51.830;5.684;2023-06-22T08:03:35;24.60;62.80
42755;DHT22;28407;51.830;5.684;2023-06-22T08:05:36;24.70;62.70
42755;DHT22;28407;51.830;5.684;2023-06-22T08:07:37;24.80;62.70
42755;DHT22;28407;51.830;5.684;2023-06-22T08:09:38;24.80;62.50
42755;DHT22;28407;51.830;5.684;2023-06-22T08:11:38;24.80;62.50
42755;DHT22;28407;51.830;5.684;2023-06-22T08:13:39;24.80;62.40
42755;DHT22;28407;51.830;5.684;2023-06-22T08:15:39;24.80;62.40
42755;DHT22;28407;51.830;5.684;2023-06-22T08:17:40;24.90;62.50
42755;DHT22;28407;51.830;5.684;2023-06-22T08:19:41;24.90;62.30
42755;DHT22;28407;51.830;5.684;2023-06-22T08:21:42;24.90;62.20
42755;DHT22;28407;51.830;5.684;2023-06-22T08:23:43;24.90;62.10
42755;DHT22;28407;51.830;5.684;2023-06-22T08:25:44;24.90;62.00
42755;DHT22;28407;51.830;5.684;2023-06-22T08:27:46;25.00;61.90
42755;DHT22;28407;51.830;5.684;2023-06-22T08:29:49;25.10;61.80
42755;DHT22;28407;51.830;5.684;2023-06-22T08:31:51;25.10;61.60
42755;DHT22;28407;51.830;5.684;2023-06-22T08:33:51;25.20;62.20
42755;DHT22;28407;51.830;5.684;2023-06-22T08:35:52;25.20;61.30
42755;DHT22;28407;51.830;5.684;2023-06-22T08:37:53;25.20;61.10
42755;DHT22;28407;51.830;5.684;2023-06-22T08:39:54;25.20;60.90
42755;DHT22;28407;51.830;5.684;2023-06-22T08:41:55;25.30;60.90
42755;DHT22;28407;51.830;5.684;2023-06-22T08:43:55;25.30;60.80
42755;DHT22;28407;51.830;5.684;2023-06-22T08:45:56;25.30;60.60
42755;DHT22;28407;51.830;5.684;2023-06-22T08:47:57;25.30;60.50
42755;DHT22;28407;51.830;5.684;2023-06-22T08:49:57;25.30;60.40
42755;DHT22;28407;51.830;5.684;2023-06-22T08:51:58;25.40;60.30
42755;DHT22;28407;51.830;5.684;2023-06-22T08:53:59;25.40;60.90
42755;DHT22;28407;51.830;5.684;2023-06-22T08:55:59;25.40;60.10
42755;DHT22;28407;51.830;5.684;2023-06-22T08:58:00;25.50;60.10
42755;DHT22;28407;51.830;5.684;2023-06-22T09:00:01;25.50;60.00
42755;DHT22;28407;51.830;5.684;2023-06-22T09:02:01;25.50;59.90
42755;DHT22;28407;51.830;5.684;2023-06-22T09:04:02;25.50;60.50
42755;DHT22;28407;51.830;5.684;2023-06-22T09:06:04;25.60;59.80
42755;DHT22;28407;51.830;5.684;2023-06-22T09:08:04;25.50;59.70
42755;DHT22;28407;51.830;5.684;2023-06-22T09:10:06;25.50;59.60
42755;DHT22;28407;51.830;5.684;2023-06-22T09:12:07;25.50;59.40
42755;DHT22;28407;51.830;5.684;2023-06-22T09:14:09;25.60;59.30
42755;DHT22;28407;51.830;5.684;2023-06-22T09:16:10;25.60;59.30
42755;DHT22;28407;51.830;5.684;2023-06-22T09:18:11;25.60;59.30
42755;DHT22;28407;51.830;5.684;2023-06-22T09:20:12;25.60;59.20
42755;DHT22;28407;51.830;5.684;2023-06-22T09:22:13;25.70;59.30
42755;DHT22;28407;51.830;5.684;2023-06-22T09:24:13;25.80;59.20
42755;DHT22;28407;51.830;5.684;2023-06-22T09:26:14;25.80;59.20
42755;DHT22;28407;51.830;5.684;2023-06-22T09:28:15;25.80;59.60
42755;DHT22;28407;51.830;5.684;2023-06-22T09:30:16;25.80;58.90
42755;DHT22;28407;51.830;5.684;2023-06-22T09:32:16;25.80;58.90
42755;DHT22;28407;51.830;5.684;2023-06-22T09:34:17;25.80;58.70
42755;DHT22;28407;51.830;5.684;2023-06-22T09:36:21;25.80;58.50
42755;DHT22;28407;51.830;5.684;2023-06-22T09:38:21;25.90;58.50
42755;DHT22;28407;51.830;5.684;2023-06-22T09:40:22;25.90;58.50
42755;DHT22;28407;51.830;5.684;2023-06-22T09:42:23;25.90;58.40
42755;DHT22;28407;51.830;5.684;2023-06-22T09:44:23;25.90;58.30
42755;DHT22;28407;51.830;5.684;2023-06-22T09:46:24;26.00;58.30
42755;DHT22;28407;51.830;5.684;2023-06-22T09:48:28;26.00;58.20
42755;DHT22;28407;51.830;5.684;2023-06-22T09:50:30;26.00;58.00
42755;DHT22;28407;51.830;5.684;2023-06-22T09:52:31;26.00;57.90
42755;DHT22;28407;51.830;5.684;2023-06-22T09:54:32;26.00;57.90
42755;DHT22;28407;51.830;5.684;2023-06-22T09:56:32;26.00;57.90
42755;DHT22;28407;51.830;5.684;2023-06-22T09:58:33;26.00;57.80
42755;DHT22;28407;51.830;5.684;2023-06-22T10:00:33;26.00;57.60
42755;DHT22;28407;51.830;5.684;2023-06-22T10:02:34;26.00;57.50
42755;DHT22;28407;51.830;5.684;2023-06-22T10:04:35;26.00;57.50
42755;DHT22;28407;51.830;5.684;2023-06-22T10:06:36;26.00;57.60
42755;DHT22;28407;51.830;5.684;2023-06-22T10:08:36;26.00;57.60
42755;DHT22;28407;51.830;5.684;2023-06-22T10:10:37;26.00;57.50
42755;DHT22;28407;51.830;5.684;2023-06-22T10:12:46;26.00;57.50
42755;DHT22;28407;51.830;5.684;2023-06-22T10:14:46;25.90;57.50
42755;DHT22;28407;51.830;5.684;2023-06-22T10:16:48;25.90;57.60
42755;DHT22;28407;51.830;5.684;2023-06-22T10:18:49;25.90;57.60
42755;DHT22;28407;51.830;5.684;2023-06-22T10:20:50;26.00;57.70
42755;DHT22;28407;51.830;5.684;2023-06-22T10:22:54;26.00;57.70
42755;DHT22;28407;51.830;5.684;2023-06-22T10:24:54;26.00;57.60
42755;DHT22;28407;51.830;5.684;2023-06-22T10:26:55;25.90;57.60
42755;DHT22;28407;51.830;5.684;2023-06-22T10:28:56;25.90;57.60
42755;DHT22;28407;51.830;5.684;2023-06-22T10:30:56;25.90;57.70
42755;DHT22;28407;51.830;5.684;2023-06-22T10:32:57;25.90;57.80
42755;DHT22;28407;51.830;5.684;2023-06-22T10:34:57;25.90;57.80
42755;DHT22;28407;51.830;5.684;2023-06-22T10:36:58;25.90;57.90
42755;DHT22;28407;51.830;5.684;2023-06-22T10:38:59;25.90;58.10
42755;DHT22;28407;51.830;5.684;2023-06-22T10:40:59;25.90;58.20
42755;DHT22;28407;51.830;5.684;2023-06-22T10:43:00;25.90;58.30
42755;DHT22;28407;51.830;5.684;2023-06-22T10:45:01;25.90;58.30
42755;DHT22;28407;51.830;5.684;2023-06-22T10:47:01;25.90;58.40
42755;DHT22;28407;51.830;5.684;2023-06-22T10:49:02;25.90;58.50
42755;DHT22;28407;51.830;5.684;2023-06-22T10:51:03;25.90;58.50
42755;DHT22;28407;51.830;5.684;2023-06-22T10:53:03;25.90;58.40
42755;DHT22;28407;51.830;5.684;2023-06-22T10:55:05;25.90;58.40
42755;DHT22;28407;51.830;5.684;2023-06-22T10:57:06;25.90;58.30
42755;DHT22;28407;51.830;5.684;2023-06-22T10:59:06;25.90;58.20
42755;DHT22;28407;51.830;5.684;2023-06-22T11:01:07;25.90;58.20
42755;DHT22;28407;51.830;5.684;2023-06-22T11:03:08;25.90;58.20
42755;DHT22;28407;51.830;5.684;2023-06-22T11:05:08;25.90;58.20
42755;DHT22;28407;51.830;5.684;2023-06-22T11:07:09;25.90;58.40
42755;DHT22;28407;51.830;5.684;2023-06-22T11:09:10;25.80;58.40
42755;DHT22;28407;51.830;5.684;2023-06-22T11:11:11;25.80;58.40
42755;DHT22;28407;51.830;5.684;2023-06-22T11:13:11;25.80;58.40
42755;DHT22;28407;51.830;5.684;2023-06-22T11:15:12;25.80;58.50
42755;DHT22;28407;51.830;5.684;2023-06-22T11:17:12;25.80;58.60
42755;DHT22;28407;51.830;5.684;2023-06-22T11:19:13;25.80;58.80
42755;DHT22;28407;51.830;5.684;2023-06-22T11:21:14;25.80;58.90
42755;DHT22;28407;51.830;5.684;2023-06-22T11:23:14;25.80;59.00
42755;DHT22;28407;51.830;5.684;2023-06-22T11:25:15;25.70;59.10
42755;DHT22;28407;51.830;5.684;2023-06-22T11:27:16;25.70;59.40
42755;DHT22;28407;51.830;5.684;2023-06-22T11:29:16;25.70;59.60
42755;DHT22;28407;51.830;5.684;2023-06-22T11:31:17;25.60;59.80
42755;DHT22;28407;51.830;5.684;2023-06-22T11:33:17;25.60;60.00
42755;DHT22;28407;51.830;5.684;2023-06-22T11:35:18;25.60;60.30
42755;DHT22;28407;51.830;5.684;2023-06-22T11:37:19;25.50;60.50
42755;DHT22;28407;51.830;5.684;2023-06-22T11:39:19;25.50;60.90
42755;DHT22;28407;51.830;5.684;2023-06-22T11:41:20;25.40;61.10
42755;DHT22;28407;51.830;5.684;2023-06-22T11:43:21;25.30;61.50
42755;DHT22;28407;51.830;5.684;2023-06-22T11:45:21;25.20;61.90
42755;DHT22;28407;51.830;5.684;2023-06-22T11:47:22;25.20;62.30
42755;DHT22;28407;51.830;5.684;2023-06-22T11:49:22;25.10;62.50
42755;DHT22;28407;51.830;5.684;2023-06-22T11:51:23;25.10;62.90
42755;DHT22;28407;51.830;5.684;2023-06-22T11:53:25;25.10;63.10
42755;DHT22;28407;51.830;5.684;2023-06-22T11:55:26;25.00;63.40
42755;DHT22;28407;51.830;5.684;2023-06-22T11:57:27;24.90;63.60
42755;DHT22;28407;51.830;5.684;2023-06-22T11:59:27;24.90;63.80
42755;DHT22;28407;51.830;5.684;2023-06-22T12:01:28;24.80;63.90
42755;DHT22;28407;51.830;5.684;2023-06-22T12:03:28;24.80;64.10
42755;DHT22;28407;51.830;5.684;2023-06-22T12:05:30;24.80;64.20
42755;DHT22;28407;51.830;5.684;2023-06-22T12:07:30;24.70;64.30
42755;DHT22;28407;51.830;5.684;2023-06-22T12:09:32;24.70;64.40
42755;DHT22;28407;51.830;5.684;2023-06-22T12:11:33;24.60;64.60
42755;DHT22;28407;51.830;5.684;2023-06-22T12:13:34;24.60;64.80
42755;DHT22;28407;51.830;5.684;2023-06-22T12:15:34;24.60;65.00
42755;DHT22;28407;51.830;5.684;2023-06-22T12:17:35;24.50;65.20
42755;DHT22;28407;51.830;5.684;2023-06-22T12:19:36;24.50;65.50
42755;DHT22;28407;51.830;5.684;2023-06-22T12:21:37;24.40;65.70
42755;DHT22;28407;51.830;5.684;2023-06-22T12:23:38;24.30;66.00
42755;DHT22;28407;51.830;5.684;2023-06-22T12:25:38;24.20;66.20
42755;DHT22;28407;51.830;5.684;2023-06-22T12:27:39;24.10;66.40
42755;DHT22;28407;51.830;5.684;2023-06-22T12:29:40;24.10;66.70
42755;DHT22;28407;51.830;5.684;2023-06-22T12:31:40;24.00;66.90
42755;DHT22;28407;51.830;5.684;2023-06-22T12:33:42;24.00;67.00
42755;DHT22;28407;51.830;5.684;2023-06-22T12:35:43;23.90;67.30
42755;DHT22;28407;51.830;5.684;2023-06-22T12:37:45;23.90;67.50
42755;DHT22;28407;51.830;5.684;2023-06-22T12:39:46;23.90;67.60
42755;DHT22;28407;51.830;5.684;2023-06-22T12:41:46;23.90;67.70
42755;DHT22;28407;51.830;5.684;2023-06-22T12:43:47;23.80;67.80
42755;DHT22;28407;51.830;5.684;2023-06-22T12:45:48;23.80;67.80
42755;DHT22;28407;51.830;5.684;2023-06-22T12:47:48;23.80;67.90
42755;DHT22;28407;51.830;5.684;2023-06-22T12:49:50;23.80;68.00